Time;durP1;ratioP1;P1;durP2;ratioP2;P2;SDS_P1;SDS_P2;PMS_P1;PMS_P2;Temp;Humidity;BMP_temperature;BMP_pressure;BME280_temperature;BME280_humidity;BME280_pressure;Samples;Min_cycle;Max_cycle;Signal;HPM_P1;HPM_P2
2023/05/21 00:02:37;;;;;;;5.43;3.25;;;;;;;13.05;100.00;102109.47;4997949;28;20100;-76
2023/05/21 00:05:22;;;;;;;4.57;3.08;;;;;;;13.05;100.00;102120.13;4983484;28;20449;-76
2023/05/21 00:08:07;;;;;;;4.20;3.00;;;;;;;13.04;100.00;102113.06;4993160;28;20448;-77
2023/05/21 00:10:51;;;;;;;3.83;3.00;;;;;;;13.03;100.00;102114.84;4997236;28;20044;-81
2023/05/21 00:13:35;;;;;;;5.05;3.40;;;;;;;13.03;100.00;102114.84;4996717;28;20048;-76
2023/05/21 00:16:21;;;;;;;5.05;2.60;;;;;;;13.04;100.00;102115.72;4993853;28;20832;-77
2023/05/21 00:19:05;;;;;;;5.18;3.15;;;;;;;13.04;100.00;102105.09;4979421;28;20060;-76
2023/05/21 00:21:49;;;;;;;4.22;2.90;;;;;;;13.05;100.00;102104.16;4995686;28;20127;-77
2023/05/21 00:24:33;;;;;;;4.63;3.55;;;;;;;13.05;100.00;102101.50;4995787;28;20061;-77
2023/05/21 00:27:17;;;;;;;5.10;3.30;;;;;;;13.03;100.00;102101.56;4995567;28;20131;-77
2023/05/21 00:30:02;;;;;;;3.60;2.88;;;;;;;13.03;100.00;102100.69;4997031;28;20065;-76
2023/05/21 00:32:46;;;;;;;4.70;3.35;;;;;;;13.03;100.00;102098.03;4995783;28;20135;-77
2023/05/21 00:35:30;;;;;;;3.45;2.78;;;;;;;13.05;100.00;102101.50;4995911;28;20137;-78
2023/05/21 00:38:17;;;;;;;6.13;3.13;;;;;;;13.04;100.00;102094.47;4996919;28;20172;-77
2023/05/21 00:41:01;;;;;;;4.68;3.05;;;;;;;13.02;100.00;102091.84;4997461;28;20076;-76
2023/05/21 00:43:45;;;;;;;4.78;2.83;;;;;;;13.06;100.00;102094.41;4995958;28;20128;-76
2023/05/21 00:46:29;;;;;;;3.90;2.53;;;;;;;13.04;100.00;102084.69;4994555;28;20550;-76
2023/05/21 00:49:16;;;;;;;5.22;2.92;;;;;;;13.06;100.00;102087.28;4993311;28;20044;-77
2023/05/21 00:52:01;;;;;;;3.45;2.88;;;;;;;13.07;100.00;102090.81;4979792;28;20088;-77
2023/05/21 00:54:48;;;;;;;3.63;2.80;;;;;;;13.07;100.00;102086.34;4997339;28;20122;-75
2023/05/21 00:57:32;;;;;;;4.47;3.25;;;;;;;13.06;100.00;102076.66;4982837;28;20055;-78
2023/05/21 01:00:16;;;;;;;5.18;2.70;;;;;;;13.06;100.00;102076.66;4995757;28;20477;-76
2023/05/21 01:03:00;;;;;;;5.18;3.10;;;;;;;13.05;100.00;102074.91;4995235;28;21139;-77
2023/05/21 01:05:45;;;;;;;4.07;3.03;;;;;;;13.05;100.00;102074.91;4994347;28;20679;-77
2023/05/21 01:08:29;;;;;;;4.35;3.30;;;;;;;13.04;100.00;102075.84;4994409;28;20145;-77
2023/05/21 01:11:13;;;;;;;4.53;3.28;;;;;;;13.02;100.00;102075.06;4981380;28;20150;-77
2023/05/21 01:13:58;;;;;;;6.80;3.42;;;;;;;12.99;100.00;102064.50;4981930;28;20468;-77
2023/05/21 01:16:45;;;;;;;3.80;3.22;;;;;;;12.99;100.00;102072.47;4995524;28;20037;-76
2023/05/21 01:19:31;;;;;;;5.28;3.45;;;;;;;13.00;100.00;102071.56;4993445;28;20272;-77
2023/05/21 01:22:17;;;;;;;5.05;3.67;;;;;;;12.99;100.00;102062.72;4994484;28;20108;-77
2023/05/21 01:25:02;;;;;;;5.05;3.40;;;;;;;12.97;100.00;102061.06;4994634;28;20060;-77
2023/05/21 01:27:46;;;;;;;4.00;3.20;;;;;;;12.96;100.00;102059.31;4997314;28;20061;-77
2023/05/21 01:30:30;;;;;;;6.82;3.60;;;;;;;12.96;100.00;102056.66;4994988;28;20080;-77
2023/05/21 01:33:25;;;;;;;6.88;3.78;;;;;;;12.95;100.00;102052.25;4994259;28;20049;-77
2023/05/21 01:36:25;;;;;;;6.40;3.67;;;;;;;12.95;100.00;102061.09;4979832;28;20118;-75
2023/05/21 01:39:16;;;;;;;5.25;3.50;;;;;;;12.94;100.00;102039.88;4994995;28;20639;-78
2023/05/21 01:42:02;;;;;;;6.40;3.50;;;;;;;12.93;100.00;102038.16;4996279;28;20092;-77
2023/05/21 01:44:48;;;;;;;4.88;3.40;;;;;;;12.94;100.00;102043.41;4995817;28;20148;-77
2023/05/21 01:47:36;;;;;;;4.78;3.78;;;;;;;12.94;100.00;102056.72;5000672;28;20182;-77
2023/05/21 01:50:22;;;;;;;5.35;3.33;;;;;;;12.93;100.00;102062.06;4998671;28;20052;-77
2023/05/21 01:53:06;;;;;;;4.90;3.30;;;;;;;12.94;100.00;102051.38;4986331;28;20037;-76
2023/05/21 01:55:50;;;;;;;4.32;3.47;;;;;;;12.94;100.00;102054.06;5000503;28;20417;-76
2023/05/21 01:58:34;;;;;;;6.68;3.67;;;;;;;12.94;100.00;102055.81;4986571;28;20402;-77
2023/05/21 02:01:19;;;;;;;5.05;3.25;;;;;;;12.92;100.00;102063.88;4997408;28;21992;-76
2023/05/21 02:04:06;;;;;;;4.15;3.00;;;;;;;12.89;100.00;102053.34;5000151;28;20049;-78
2023/05/21 02:06:50;;;;;;;5.00;3.30;;;;;;;12.90;100.00;102050.63;4996258;28;20056;-77
2023/05/21 02:09:34;;;;;;;4.90;3.50;;;;;;;12.89;100.00;102054.22;4984801;28;20040;-76
2023/05/21 02:12:18;;;;;;;4.93;3.45;;;;;;;12.89;100.00;102056.88;4999048;28;20140;-77
2023/05/21 02:15:04;;;;;;;5.03;3.60;;;;;;;12.88;100.00;102051.63;4986232;28;20163;-78
2023/05/21 02:17:51;;;;;;;8.77;3.80;;;;;;;12.90;100.00;102044.44;4984360;28;21889;-77
2023/05/21 02:20:38;;;;;;;5.07;3.38;;;;;;;12.92;100.00;102049.72;4998484;28;20041;-78
2023/05/21 02:23:22;;;;;;;6.18;3.83;;;;;;;12.92;100.00;102037.31;4999244;28;20589;-77
2023/05/21 02:26:06;;;;;;;5.03;3.80;;;;;;;12.92;100.00;102031.09;4999088;28;20052;-77
2023/05/21 02:28:54;;;;;;;4.45;3.03;;;;;;;12.90;100.00;102034.69;4999564;28;20079;-76
2023/05/21 02:31:38;;;;;;;6.13;4.00;;;;;;;12.93;100.00;102040.81;4985050;28;20111;-76
2023/05/21 02:34:23;;;;;;;4.38;3.35;;;;;;;12.93;100.00;102043.47;4999645;28;20045;-76
2023/05/21 02:37:08;;;;;;;5.88;3.83;;;;;;;12.94;100.00;102042.53;4983955;28;20108;-76
2023/05/21 02:39:53;;;;;;;5.00;3.75;;;;;;;12.93;100.00;102041.69;4997736;28;20052;-77
2023/05/21 02:42:40;;;;;;;4.68;3.20;;;;;;;12.94;100.00;102050.50;4970140;28;20108;-76
2023/05/21 02:45:23;;;;;;;4.50;3.70;;;;;;;12.95;100.00;102036.28;4979305;28;20104;-76
2023/05/21 02:48:11;;;;;;;7.03;4.03;;;;;;;12.94;100.00;102029.25;4998030;28;21944;-77
2023/05/21 02:50:55;;;;;;;5.80;3.90;;;;;;;12.97;100.00;102034.47;4984396;28;20135;-76
2023/05/21 02:53:39;;;;;;;7.97;3.47;;;;;;;12.98;100.00;102036.19;4997856;28;20049;-76
2023/05/21 02:56:23;;;;;;;4.78;3.40;;;;;;;12.99;100.00;102027.28;4997287;28;20053;-76
2023/05/21 02:59:07;;;;;;;6.05;4.05;;;;;;;12.99;100.00;102021.97;4997215;28;20100;-77
2023/05/21 03:01:51;;;;;;;4.95;4.03;;;;;;;12.97;100.00;102023.84;4994424;28;20088;-76
2023/05/21 03:04:44;;;;;;;7.80;4.32;;;;;;;12.97;100.00;102030.00;4998450;28;20048;-78
2023/05/21 03:07:28;;;;;;;6.53;4.43;;;;;;;12.96;100.00;102035.41;4996123;28;20088;-77
2023/05/21 03:10:15;;;;;;;5.80;3.95;;;;;;;12.94;100.00;102029.25;4983320;28;20562;-78
2023/05/21 03:13:00;;;;;;;5.80;3.92;;;;;;;12.93;100.00;102028.41;4996545;28;20044;-78
2023/05/21 03:15:45;;;;;;;7.07;4.18;;;;;;;12.93;100.00;102024.84;4987825;28;20197;-78
2023/05/21 03:18:29;;;;;;;7.85;4.05;;;;;;;12.92;100.00;102024.00;4997203;28;20100;-78
2023/05/21 03:21:16;;;;;;;7.22;4.30;;;;;;;12.90;100.00;102029.38;4994333;28;20056;-77
2023/05/21 03:24:01;;;;;;;8.25;4.40;;;;;;;12.88;100.00;102031.22;4977670;28;20112;-77
2023/05/21 03:26:46;;;;;;;8.18;4.70;;;;;;;12.85;100.00;102030.47;4982784;28;20744;-76
2023/05/21 03:29:31;;;;;;;7.43;3.95;;;;;;;12.81;100.00;102040.31;5000262;28;20057;-75
2023/05/21 03:32:15;;;;;;;8.43;4.40;;;;;;;12.77;100.00;102036.06;4998439;28;20112;-77
2023/05/21 03:35:02;;;;;;;7.47;4.35;;;;;;;12.72;100.00;102033.56;4985339;28;20056;-76
2023/05/21 03:37:46;;;;;;;7.30;4.35;;;;;;;12.71;100.00;102028.28;4981921;28;20056;-77
2023/05/21 03:40:30;;;;;;;7.78;4.35;;;;;;;12.70;100.00;102026.56;4996780;28;20468;-77
2023/05/21 03:43:14;;;;;;;8.30;4.82;;;;;;;12.68;100.00;102031.06;4983779;28;20052;-77
2023/05/21 03:45:59;;;;;;;9.32;4.85;;;;;;;12.65;100.00;102026.75;4984808;28;20111;-76
2023/05/21 03:48:43;;;;;;;8.35;4.60;;;;;;;12.65;100.00;102028.50;4997278;28;22120;-77
2023/05/21 03:51:29;;;;;;;8.23;4.55;;;;;;;12.62;100.00;102026.84;4995815;28;20060;-77
2023/05/21 03:54:13;;;;;;;7.40;4.55;;;;;;;12.63;100.00;102028.56;4996919;28;20181;-77
2023/05/21 03:56:58;;;;;;;9.60;4.70;;;;;;;12.60;100.00;102024.22;4980176;28;20137;-78
2023/05/21 03:59:45;;;;;;;9.25;4.55;;;;;;;12.59;100.00;102025.16;4971599;28;20152;-78
2023/05/21 04:02:29;;;;;;;8.63;4.65;;;;;;;12.58;100.00;102026.06;4996935;28;20037;-78
2023/05/21 04:05:13;;;;;;;9.02;4.32;;;;;;;12.56;100.00;102027.03;4995054;28;20500;-78
2023/05/21 04:07:57;;;;;;;7.40;4.35;;;;;;;12.52;100.00;102022.78;4996387;28;20107;-78
2023/05/21 04:10:42;;;;;;;10.20;4.63;;;;;;;12.47;100.00;102028.22;4982823;28;20048;-78
2023/05/21 04:13:27;;;;;;;8.50;4.40;;;;;;;12.39;100.00;102022.31;4997523;28;20056;-78
2023/05/21 04:16:13;;;;;;;7.75;4.60;;;;;;;12.32;100.00;102017.22;4996131;28;20072;-77
2023/05/21 04:18:57;;;;;;;7.82;4.60;;;;;;;12.27;100.00;102021.84;4981741;28;20103;-77
2023/05/21 04:21:43;;;;;;;10.40;4.82;;;;;;;12.22;100.00;102026.41;4992319;28;20145;-78
2023/05/21 04:24:27;;;;;;;6.60;4.65;;;;;;;12.16;100.00;102022.16;4984269;28;20512;-78
2023/05/21 04:27:12;;;;;;;9.32;4.47;;;;;;;12.09;100.00;102032.13;4997305;28;20244;-78
2023/05/21 04:29:57;;;;;;;7.68;4.57;;;;;;;12.09;100.00;102031.25;4994803;28;20056;-78
2023/05/21 04:32:44;;;;;;;8.35;4.35;;;;;;;12.09;100.00;102032.13;4995166;28;20642;-78
2023/05/21 04:35:28;;;;;;;10.02;4.82;;;;;;;12.07;100.00;102033.97;4998284;28;20110;-77
2023/05/21 04:38:12;;;;;;;8.07;4.50;;;;;;;12.10;100.00;102038.31;4978376;28;20045;-77
2023/05/21 04:40:57;;;;;;;5.88;4.00;;;;;;;12.11;100.00;102037.41;4980508;28;20162;-77
2023/05/21 04:43:42;;;;;;;11.30;4.53;;;;;;;12.09;100.00;102032.13;4996373;28;20049;-77
2023/05/21 04:46:27;;;;;;;8.45;4.30;;;;;;;12.12;100.00;102027.63;4995078;28;20061;-78
2023/05/21 04:49:14;;;;;;;8.82;4.35;;;;;;;12.13;100.00;102026.72;4979500;28;20053;-76
2023/05/21 04:51:58;;;;;;;11.57;5.03;;;;;;;12.17;100.00;102033.66;4994056;28;20056;-77
2023/05/21 04:54:44;;;;;;;6.18;4.00;;;;;;;12.19;100.00;102037.13;4993967;28;20049;-78
2023/05/21 04:57:28;;;;;;;8.43;4.32;;;;;;;12.22;100.00;102029.94;4980374;28;20137;-77
2023/05/21 05:00:13;;;;;;;6.65;3.80;;;;;;;12.26;100.00;102025.38;4982349;28;20092;-77
2023/05/21 05:02:57;;;;;;;7.38;3.90;;;;;;;12.30;100.00;102034.09;4978639;28;20548;-77
2023/05/21 05:05:41;;;;;;;9.60;4.20;;;;;;;12.36;100.00;102036.56;4995053;28;20044;-75
2023/05/21 05:08:27;;;;;;;6.32;3.88;;;;;;;12.39;100.00;102028.50;4994411;28;20203;-77
2023/05/21 05:11:12;;;;;;;8.52;3.90;;;;;;;12.41;100.00;102031.13;4993452;28;20049;-77
2023/05/21 05:13:56;;;;;;;8.90;3.67;;;;;;;12.44;100.00;102038.97;4994235;28;22122;-77
2023/05/21 05:16:41;;;;;;;7.78;4.03;;;;;;;12.43;100.00;102034.56;4994744;28;20544;-77
2023/05/21 05:19:26;;;;;;;8.57;4.30;;;;;;;12.44;100.00;102039.84;4998301;28;20468;-77
2023/05/21 05:22:10;;;;;;;5.20;3.70;;;;;;;12.47;100.00;102037.06;4980955;28;20607;-77
2023/05/21 05:24:54;;;;;;;6.90;3.85;;;;;;;12.49;100.00;102035.22;4997162;28;20574;-77
2023/05/21 05:27:38;;;;;;;6.68;3.70;;;;;;;12.51;100.00;102037.84;4994798;28;20527;-78
2023/05/21 05:30:22;;;;;;;4.53;3.03;;;;;;;12.55;100.00;102034.16;4997544;28;20060;-78
2023/05/21 05:33:06;;;;;;;6.07;3.55;;;;;;;12.57;100.00;102034.97;4996777;28;21773;-77
2023/05/21 05:35:50;;;;;;;6.57;3.53;;;;;;;12.59;100.00;102033.13;4994315;28;20180;-77
2023/05/21 05:38:35;;;;;;;6.22;3.80;;;;;;;12.60;100.00;102032.19;4993141;28;20112;-77
2023/05/21 05:41:19;;;;;;;6.65;3.58;;;;;;;12.63;100.00;102025.91;4996874;28;20064;-76
2023/05/21 05:44:03;;;;;;;6.72;3.13;;;;;;;12.66;100.00;102025.81;4976655;28;20100;-77
2023/05/21 05:46:47;;;;;;;5.03;3.40;;;;;;;12.70;100.00;102018.59;4963595;28;20068;-77
2023/05/21 05:49:31;;;;;;;6.78;3.20;;;;;;;12.71;100.00;102017.66;4992563;28;21603;-77
2023/05/21 05:52:15;;;;;;;6.43;3.72;;;;;;;12.73;100.00;102023.78;4991977;28;20053;-78
2023/05/21 05:54:59;;;;;;;9.48;3.50;;;;;;;12.77;100.00;102017.44;4998245;28;20068;-77
2023/05/21 05:57:43;;;;;;;5.90;3.47;;;;;;;12.81;100.00;102019.06;4994440;28;20115;-77
2023/05/21 06:00:27;;;;;;;7.45;3.63;;;;;;;12.85;100.00;102019.84;4995309;28;20049;-77
2023/05/21 06:03:14;;;;;;;5.05;2.90;;;;;;;12.86;100.00;102017.09;4992535;28;20099;-77
2023/05/21 06:05:57;;;;;;;5.97;2.83;;;;;;;12.90;100.00;102024.06;4996541;28;20511;-77
2023/05/21 06:08:42;;;;;;;6.18;3.08;;;;;;;12.94;100.00;102015.97;4981852;28;20056;-76
2023/05/21 06:11:26;;;;;;;6.95;3.38;;;;;;;12.95;100.00;102018.56;4979243;28;20093;-78
2023/05/21 06:14:10;;;;;;;7.15;2.70;;;;;;;12.97;100.00;102015.84;4991700;28;20173;-77
2023/05/21 06:16:54;;;;;;;7.65;3.45;;;;;;;12.98;100.00;102014.94;4979707;28;20040;-77
2023/05/21 06:19:40;;;;;;;5.50;3.08;;;;;;;13.01;100.00;102017.47;4980400;28;20100;-77
2023/05/21 06:22:24;;;;;;;5.90;2.95;;;;;;;13.03;100.00;102008.50;4991899;28;21022;-77
2023/05/21 06:25:09;;;;;;;5.63;2.85;;;;;;;13.07;100.00;102008.41;4981669;28;20060;-77
2023/05/21 06:27:55;;;;;;;7.75;3.08;;;;;;;13.13;100.00;102009.03;4989743;28;20060;-76
2023/05/21 06:30:40;;;;;;;6.22;3.05;;;;;;;13.18;100.00;102009.75;4983697;28;20061;-76
2023/05/21 06:33:26;;;;;;;6.68;3.20;;;;;;;13.27;100.00;102012.97;4998589;28;20044;-77
2023/05/21 06:36:13;;;;;;;5.82;3.15;;;;;;;13.32;100.00;102013.66;4998790;28;20599;-78
2023/05/21 06:38:59;;;;;;;5.60;3.30;;;;;;;13.38;100.00;102002.78;4997464;28;20083;-76
2023/05/21 06:41:46;;;;;;;7.32;3.08;;;;;;;13.44;100.00;102001.66;4994132;28;20060;-77
2023/05/21 06:44:30;;;;;;;5.15;3.17;;;;;;;13.50;100.00;102001.47;4984625;28;20099;-78
2023/05/21 06:47:15;;;;;;;5.90;2.53;;;;;;;13.62;100.00;102008.09;4998754;28;20559;-77
2023/05/21 06:49:58;;;;;;;7.72;3.47;;;;;;;13.77;100.00;101998.63;4999254;28;21755;-77
2023/05/21 06:52:43;;;;;;;4.95;2.90;;;;;;;13.96;100.00;102001.38;4994988;28;20125;-77
2023/05/21 06:55:27;;;;;;;4.90;2.72;;;;;;;14.13;100.00;101991.84;4996246;28;20147;-77
2023/05/21 06:58:11;;;;;;;5.63;3.22;;;;;;;14.32;100.00;101993.72;4992075;28;20056;-75
2023/05/21 07:00:56;;;;;;;3.75;2.83;;;;;;;14.45;100.00;101997.59;4969380;28;20048;-78
2023/05/21 07:03:40;;;;;;;5.85;2.85;;;;;;;14.51;100.00;101993.78;4994303;28;20065;-78
2023/05/21 07:06:25;;;;;;;6.63;2.88;;;;;;;14.53;100.00;101987.47;4993229;28;20152;-77
2023/05/21 07:09:11;;;;;;;3.80;2.92;;;;;;;14.60;100.00;101992.53;4997844;28;20049;-77
2023/05/21 07:11:55;;;;;;;9.45;2.92;;;;;;;14.64;100.00;101986.09;4997123;28;20048;-78
2023/05/21 07:14:39;;;;;;;5.45;2.97;;;;;;;14.69;100.00;101983.22;4992598;28;20128;-78
2023/05/21 07:17:23;;;;;;;4.68;2.67;;;;;;;14.79;100.00;101987.25;4995926;28;20129;-78
2023/05/21 07:20:08;;;;;;;5.22;2.80;;;;;;;14.88;100.00;101989.50;4983952;28;20139;-78
2023/05/21 07:22:52;;;;;;;6.95;3.53;;;;;;;14.94;100.00;101985.72;4994588;28;20084;-77
2023/05/21 07:26:12;;;;;;;7.35;3.60;;;;;;;15.04;100.00;101988.81;4996682;28;20477;-78
2023/05/21 07:28:56;;;;;;;5.65;3.13;;;;;;;15.15;100.00;101990.97;4980896;28;20076;-77
2023/05/21 07:31:40;;;;;;;6.78;3.25;;;;;;;15.19;100.00;101989.88;4992906;28;20055;-78
2023/05/21 07:34:25;;;;;;;7.72;3.40;;;;;;;15.26;100.00;101986.00;4995426;28;20040;-78
2023/05/21 07:37:09;;;;;;;6.68;3.50;;;;;;;15.33;100.00;101984.78;4995544;28;20092;-78
2023/05/21 07:39:55;;;;;;;7.00;2.97;;;;;;;15.34;100.00;101991.84;4995398;28;20060;-78
2023/05/21 07:42:40;;;;;;;4.75;2.97;;;;;;;15.34;100.00;101988.31;4980476;28;20199;-77
2023/05/21 07:45:24;;;;;;;4.25;2.83;;;;;;;15.36;100.00;101982.91;4998300;28;20061;-77
2023/05/21 07:48:08;;;;;;;6.28;3.08;;;;;;;15.40;100.00;101988.00;4995457;28;20052;-77
2023/05/21 07:50:53;;;;;;;5.95;3.30;;;;;;;15.37;100.00;101981.97;4982095;28;20258;-76
2023/05/21 07:53:37;;;;;;;6.38;3.55;;;;;;;15.32;100.00;101979.50;4996877;28;20057;-77
2023/05/21 07:56:21;;;;;;;5.70;3.10;;;;;;;15.30;100.00;101984.91;4972232;28;20052;-79
2023/05/21 07:59:06;;;;;;;5.05;3.30;;;;;;;15.27;100.00;101987.75;4994739;28;20099;-77
2023/05/21 08:01:50;;;;;;;5.07;2.85;;;;;;;15.29;100.00;101979.66;4997262;28;20049;-78
2023/05/21 08:04:34;;;;;;;6.00;3.17;;;;;;;15.31;100.00;101986.63;4998660;28;20095;-77
2023/05/21 08:07:20;;;;;;;4.63;3.50;;;;;;;15.34;100.00;101985.63;4995830;28;20057;-79
2023/05/21 08:10:05;;;;;;;5.25;3.35;;;;;;;15.38;100.00;101994.34;4995667;28;20953;-78
2023/05/21 08:12:49;;;;;;;6.05;3.00;;;;;;;15.36;100.00;101985.56;4994297;28;20097;-78
2023/05/21 08:15:33;;;;;;;5.93;2.85;;;;;;;15.32;100.00;101979.50;4995942;28;20107;-78
2023/05/21 08:18:18;;;;;;;4.25;3.00;;;;;;;15.28;100.00;101984.13;4976377;28;20116;-78
2023/05/21 08:21:03;;;;;;;5.63;3.75;;;;;;;15.20;100.00;101979.16;4995996;28;20053;-78
2023/05/21 08:23:47;;;;;;;5.18;3.33;;;;;;;15.14;100.00;101987.44;4983050;28;20056;-76
2023/05/21 08:26:31;;;;;;;5.70;3.08;;;;;;;15.16;100.00;101992.72;4980264;28;20107;-77
2023/05/21 08:29:15;;;;;;;4.72;2.85;;;;;;;15.16;100.00;101998.88;4994260;28;20112;-77
2023/05/21 08:31:59;;;;;;;6.85;3.70;;;;;;;15.11;100.00;101998.25;4994139;28;20167;-78
2023/05/21 08:34:43;;;;;;;5.72;3.08;;;;;;;15.05;100.00;101999.38;4982752;28;20576;-78
2023/05/21 08:37:28;;;;;;;6.03;3.00;;;;;;;15.03;100.00;101995.94;4982544;28;20053;-78
2023/05/21 08:40:15;;;;;;;6.30;2.97;;;;;;;15.01;100.00;102003.16;4996284;28;20048;-77
2023/05/21 08:43:00;;;;;;;3.85;2.67;;;;;;;14.96;100.00;101994.50;4995154;28;20056;-76
2023/05/21 08:45:52;;;;;;;5.05;3.00;;;;;;;14.92;100.00;101993.78;4998487;28;20100;-77
2023/05/21 08:48:37;;;;;;;6.05;2.80;;;;;;;14.94;100.00;101991.03;4993908;28;20768;-76
2023/05/21 08:51:24;;;;;;;7.68;3.08;;;;;;;14.91;100.00;102002.72;4994642;28;20504;-77
2023/05/21 08:54:08;;;;;;;7.28;3.05;;;;;;;14.92;100.00;101992.88;4996693;28;20693;-77
2023/05/21 08:56:52;;;;;;;4.95;2.83;;;;;;;14.95;100.00;101992.75;4994635;28;20091;-77
2023/05/21 08:59:42;;;;;;;5.05;2.58;;;;;;;14.98;100.00;101984.63;4995014;28;20057;-77
2023/05/21 09:02:26;;;;;;;3.95;2.65;;;;;;;15.00;100.00;101989.88;4989662;28;20045;-77
2023/05/21 09:05:12;;;;;;;4.85;3.00;;;;;;;15.07;100.00;101976.22;4988853;28;20096;-77
2023/05/21 09:08:05;;;;;;;4.00;2.75;;;;;;;15.17;100.00;101975.75;4975533;28;20068;-76
2023/05/21 09:10:51;;;;;;;4.28;2.53;;;;;;;15.19;100.00;101974.75;4979573;28;20434;-77
2023/05/21 09:13:35;;;;;;;7.65;3.22;;;;;;;15.22;100.00;101973.75;4995779;28;20048;-77
2023/05/21 09:16:20;;;;;;;7.05;3.20;;;;;;;15.25;100.00;101968.25;4993932;28;20049;-76
2023/05/21 09:19:09;;;;;;;4.38;2.70;;;;;;;15.38;100.00;101968.56;4996729;28;21586;-76
2023/05/21 09:21:53;;;;;;;4.40;2.85;;;;;;;15.51;100.00;101966.16;4973102;28;21952;-77
2023/05/21 09:24:43;;;;;;;4.32;2.75;;;;;;;15.71;100.00;101969.66;4993811;28;20119;-76
2023/05/21 09:27:27;;;;;;;4.32;3.03;;;;;;;15.88;100.00;101969.69;4996337;28;21980;-77
2023/05/21 09:30:16;;;;;;;3.63;2.80;;;;;;;15.99;100.00;101968.28;4982202;28;20049;-76
2023/05/21 09:33:02;;;;;;;4.70;2.85;;;;;;;16.06;100.00;101975.06;4978280;28;20531;-77
2023/05/21 09:35:46;;;;;;;7.85;2.97;;;;;;;16.26;100.00;101973.16;4979392;28;20136;-78
2023/05/21 09:38:32;;;;;;;3.85;2.85;;;;;;;16.29;100.00;101967.69;4981629;28;20072;-78
2023/05/21 09:41:17;;;;;;;4.20;2.92;;;;;;;16.29;100.00;101984.56;4993803;28;20076;-78
2023/05/21 09:44:02;;;;;;;5.97;2.58;;;;;;;16.32;100.00;101975.53;4980467;28;20460;-77
2023/05/21 09:46:46;;;;;;;4.85;2.22;;;;;;;16.37;100.00;101977.94;4997238;28;20111;-78
2023/05/21 09:49:30;;;;;;;4.93;2.90;;;;;;;16.43;100.00;101980.31;4980551;28;20123;-78
2023/05/21 09:52:22;;;;;;;6.03;2.80;;;;;;;16.40;100.00;101981.31;4993924;28;20512;-77
2023/05/21 09:55:10;;;;;;;6.63;3.10;;;;;;;16.48;100.00;101980.06;4980335;28;20045;-78
2023/05/21 09:57:56;;;;;;;4.28;2.90;;;;;;;16.59;100.00;101982.16;4996972;28;20451;-77
2023/05/21 10:00:41;;;;;;;5.82;3.08;;;;;;;16.77;100.00;101969.66;4979542;28;20052;-76
2023/05/21 10:03:27;;;;;;;5.10;2.90;;;;;;;16.88;100.00;101961.88;4970183;28;20080;-77
2023/05/21 10:06:14;;;;;;;4.13;3.08;;;;;;;16.91;100.00;101963.53;4983616;28;20080;-77
2023/05/21 10:09:01;;;;;;;6.25;3.20;;;;;;;16.97;100.00;101961.41;4981458;28;20499;-77
2023/05/21 10:11:46;;;;;;;4.47;2.90;;;;;;;17.04;100.00;101958.38;4997899;28;20103;-77
2023/05/21 10:14:32;;;;;;;5.00;2.92;;;;;;;17.06;100.00;101948.50;4983036;28;20165;-77
2023/05/21 10:17:17;;;;;;;6.57;3.38;;;;;;;17.18;100.00;101953.16;4983407;28;20521;-77
2023/05/21 10:20:03;;;;;;;5.25;2.92;;;;;;;17.18;100.00;101955.84;4999669;28;20065;-78
2023/05/21 10:22:49;;;;;;;4.80;2.80;;;;;;;17.20;100.00;101945.91;4998099;28;20072;-77
2023/05/21 10:25:33;;;;;;;4.18;3.00;;;;;;;17.15;97.41;101945.28;4985079;28;20137;-77
2023/05/21 10:28:19;;;;;;;4.68;2.53;;;;;;;17.18;99.42;101945.13;4999475;28;20086;-77
2023/05/21 10:31:03;;;;;;;6.53;2.70;;;;;;;17.23;96.62;101948.38;4998381;28;20052;-77
2023/05/21 10:33:47;;;;;;;3.60;3.00;;;;;;;17.09;97.69;101948.31;4998722;28;20680;-77
2023/05/21 10:36:33;;;;;;;3.95;2.72;;;;;;;17.02;96.89;101941.56;4997808;28;20791;-77
2023/05/21 10:39:26;;;;;;;7.82;2.63;;;;;;;16.99;96.75;101936.38;4984474;28;20132;-75
2023/05/21 10:42:20;;;;;;;5.78;2.40;;;;;;;16.94;97.82;101940.16;4999275;28;20053;-76
2023/05/21 10:45:38;;;;;;;4.53;2.60;;;;;;;17.00;93.89;101941.63;4986125;28;20052;-76
2023/05/21 10:48:25;;;;;;;4.00;2.67;;;;;;;16.88;96.01;101931.63;4997031;28;20040;-77
2023/05/21 10:51:21;;;;;;;4.72;2.83;;;;;;;17.00;97.80;101930.06;4994760;28;20184;-76
2023/05/21 10:54:14;;;;;;;5.50;2.70;;;;;;;17.20;99.54;101932.53;4999506;28;20107;-76
2023/05/21 10:57:24;;;;;;;4.45;2.78;;;;;;;17.33;96.05;101930.00;4999636;28;20052;-75
2023/05/21 11:00:10;;;;;;;4.22;2.92;;;;;;;17.38;98.02;101916.38;4994251;28;20060;-77
2023/05/21 11:02:54;;;;;;;3.70;2.67;;;;;;;17.47;98.11;101929.22;4968303;28;20149;-75
2023/05/21 11:05:40;;;;;;;5.78;2.78;;;;;;;17.45;97.40;101924.91;4998683;28;20049;-75
2023/05/21 11:08:27;;;;;;;3.88;3.05;;;;;;;17.48;97.45;101924.72;4999144;28;20052;-77
2023/05/21 11:11:20;;;;;;;4.45;2.85;;;;;;;17.41;95.74;101918.88;5000244;28;20192;-75
2023/05/21 11:14:34;;;;;;;4.50;2.85;;;;;;;17.33;95.70;101923.81;4969633;28;20187;-76
2023/05/21 11:17:38;;;;;;;6.30;2.70;;;;;;;17.35;96.41;101921.88;4997393;28;20143;-76
2023/05/21 11:20:33;;;;;;;7.32;3.30;;;;;;;17.37;97.86;101922.66;4997550;28;20052;-76
2023/05/21 11:23:19;;;;;;;6.47;2.95;;;;;;;17.36;97.89;101918.25;4981911;28;20037;-76
2023/05/21 11:26:05;;;;;;;4.07;2.92;;;;;;;17.39;98.10;101902.03;4996899;28;20185;-77
2023/05/21 11:29:08;;;;;;;4.28;2.83;;;;;;;17.35;97.22;101916.53;4996604;28;20103;-78
2023/05/21 11:32:04;;;;;;;4.82;2.65;;;;;;;17.30;97.36;101910.56;4984942;28;20044;-77
2023/05/21 11:34:49;;;;;;;4.22;2.78;;;;;;;17.22;98.04;101901.19;4984802;28;20040;-77
2023/05/21 11:37:34;;;;;;;6.00;3.28;;;;;;;17.09;96.20;101909.06;4981490;28;20108;-75
2023/05/21 11:40:26;;;;;;;4.47;2.85;;;;;;;17.04;97.22;101894.19;4981559;28;20106;-78
2023/05/21 11:43:10;;;;;;;6.88;2.75;;;;;;;17.07;98.18;101886.00;4983799;28;20457;-77
2023/05/21 11:45:54;;;;;;;5.15;3.20;;;;;;;17.21;98.63;101883.41;4983290;28;20051;-74
2023/05/21 11:48:38;;;;;;;4.97;3.10;;;;;;;17.22;97.43;101874.41;4991701;28;20048;-76
2023/05/21 11:51:23;;;;;;;6.15;3.35;;;;;;;17.19;96.24;101873.72;4980820;28;20045;-77
2023/05/21 11:54:08;;;;;;;6.10;3.42;;;;;;;17.28;99.01;101885.72;4994421;28;20064;-76
2023/05/21 11:56:55;;;;;;;5.63;3.17;;;;;;;17.30;97.70;101890.03;4982113;28;20032;-76
2023/05/21 11:59:40;;;;;;;4.97;3.05;;;;;;;17.28;97.37;101877.69;4979332;28;20056;-76
2023/05/21 12:02:27;;;;;;;5.55;3.30;;;;;;;17.41;97.12;101881.41;4997283;28;20528;-76
2023/05/21 12:05:11;;;;;;;5.00;2.97;;;;;;;17.48;97.58;101882.75;4996228;28;20057;-75
2023/05/21 12:07:58;;;;;;;6.03;3.50;;;;;;;17.58;96.80;101876.84;4996952;28;20112;-76
2023/05/21 12:10:42;;;;;;;3.33;2.78;;;;;;;17.71;96.82;101875.16;4981976;28;20176;-77
2023/05/21 12:13:27;;;;;;;4.10;3.00;;;;;;;17.73;95.66;101884.00;4982651;28;20052;-77
2023/05/21 12:16:11;;;;;;;4.20;3.20;;;;;;;17.73;94.87;101878.66;4994272;28;20069;-76
2023/05/21 12:18:56;;;;;;;5.10;3.40;;;;;;;17.71;93.59;101869.81;4996670;28;20049;-76
2023/05/21 12:21:42;;;;;;;7.15;3.17;;;;;;;17.72;95.48;101874.25;4995765;28;20140;-76
2023/05/21 12:24:27;;;;;;;7.28;3.55;;;;;;;17.91;96.61;101867.75;4997453;28;20108;-74
2023/05/21 12:27:12;;;;;;;4.60;2.95;;;;;;;17.95;96.44;101874.66;4982839;28;21986;-76
2023/05/21 12:29:56;;;;;;;4.78;3.08;;;;;;;18.10;97.57;101864.00;4982834;28;20118;-76
2023/05/21 12:32:42;;;;;;;6.60;3.10;;;;;;;18.07;95.26;101864.19;4968523;28;20143;-75
2023/05/21 12:35:26;;;;;;;4.47;3.10;;;;;;;17.90;95.45;101869.59;4985597;28;20044;-75
2023/05/21 12:38:10;;;;;;;5.70;3.65;;;;;;;17.97;97.46;101867.38;4995970;28;20107;-76
2023/05/21 12:40:55;;;;;;;6.10;3.80;;;;;;;18.07;96.39;101864.19;4982284;28;20100;-76
2023/05/21 12:43:40;;;;;;;4.78;3.30;;;;;;;18.09;94.64;101852.41;4983410;28;20611;-76
2023/05/21 12:46:26;;;;;;;4.72;3.15;;;;;;;18.17;96.49;101854.63;4999602;28;20600;-75